Time;durP1;ratioP1;P1;durP2;ratioP2;P2;SDS_P1;SDS_P2;PMS_P1;PMS_P2;Temp;Humidity;BMP_temperature;BMP_pressure;BME280_temperature;BME280_humidity;BME280_pressure;Samples;Min_cycle;Max_cycle;Signal;HPM_P1;HPM_P2
2022/06/30 00:01:36;;;;;;;18.80;13.53;;;21.50;99.90;;;;;;5014164;28;20456;-76
2022/06/30 00:04:03;;;;;;;20.73;15.60;;;21.40;99.90;;;;;;5028588;28;20450;-75
2022/06/30 00:06:30;;;;;;;18.83;15.17;;;21.40;99.90;;;;;;5015537;28;21050;-76
2022/06/30 00:08:57;;;;;;;23.87;15.73;;;21.30;99.90;;;;;;5012686;28;20457;-76
2022/06/30 00:11:25;;;;;;;17.37;14.77;;;21.30;99.90;;;;;;5018557;28;20937;-76
2022/06/30 00:13:52;;;;;;;23.07;15.10;;;21.30;99.90;;;;;;5029436;28;20527;-75
2022/06/30 00:16:19;;;;;;;26.60;15.17;;;21.30;99.90;;;;;;5024706;28;20462;-75
2022/06/30 00:18:46;;;;;;;17.93;14.70;;;21.20;99.90;;;;;;5017324;28;20547;-76
2022/06/30 00:21:13;;;;;;;17.63;14.93;;;21.20;99.90;;;;;;5024714;28;20451;-76
2022/06/30 00:23:39;;;;;;;21.80;15.20;;;21.20;99.90;;;;;;5024712;28;20512;-76
2022/06/30 00:26:06;;;;;;;22.57;14.50;;;21.20;99.90;;;;;;5010373;28;20478;-75
2022/06/30 00:28:34;;;;;;;25.37;15.20;;;21.10;99.90;;;;;;5014836;28;20525;-75
2022/06/30 00:31:01;;;;;;;19.40;15.60;;;21.10;99.90;;;;;;5028330;28;20868;-76
2022/06/30 00:33:28;;;;;;;21.53;15.93;;;21.10;99.90;;;;;;5010491;28;20947;-76
2022/06/30 00:35:54;;;;;;;17.70;14.47;;;21.00;99.90;;;;;;5024249;28;20519;-75
2022/06/30 00:38:22;;;;;;;22.53;15.60;;;20.90;99.90;;;;;;5020436;28;20923;-76
2022/06/30 00:40:49;;;;;;;19.63;14.83;;;20.90;99.90;;;;;;5013617;28;20839;-75
2022/06/30 00:43:16;;;;;;;21.70;15.57;;;20.80;99.90;;;;;;5019142;28;20458;-76
2022/06/30 00:45:45;;;;;;;21.70;15.13;;;20.80;99.90;;;;;;5017910;28;20887;-76
2022/06/30 00:48:13;;;;;;;20.90;15.27;;;20.80;99.90;;;;;;5011653;28;20485;-76
2022/06/30 00:50:40;;;;;;;18.97;15.47;;;20.80;99.90;;;;;;5027085;28;20471;-75
2022/06/30 00:53:10;;;;;;;20.13;14.53;;;20.80;99.90;;;;;;5011789;28;20454;-76
2022/06/30 00:55:37;;;;;;;17.77;14.70;;;20.80;99.90;;;;;;5010917;28;20533;-75
2022/06/30 00:58:05;;;;;;;25.40;16.40;;;20.80;99.90;;;;;;5010975;28;20883;-76
2022/06/30 01:00:36;;;;;;;23.30;16.70;;;20.80;99.90;;;;;;5015206;28;20490;-76
2022/06/30 01:03:06;;;;;;;20.33;16.30;;;20.70;99.90;;;;;;5011413;28;20504;-75
2022/06/30 01:05:33;;;;;;;23.87;15.60;;;20.70;99.90;;;;;;5026112;28;20469;-75
2022/06/30 01:08:01;;;;;;;19.70;16.83;;;20.70;99.90;;;;;;5020482;28;20512;-76
2022/06/30 01:13:12;;;;;;;22.57;16.47;;;20.60;99.90;;;;;;5012314;28;20433;-76
2022/06/30 01:15:39;;;;;;;17.93;15.50;;;20.60;99.90;;;;;;5011208;28;20902;-76
2022/06/30 01:18:07;;;;;;;17.50;15.60;;;20.60;99.90;;;;;;5007266;28;20473;-75
2022/06/30 01:20:34;;;;;;;20.00;16.30;;;20.50;99.90;;;;;;5019673;28;20482;-76
2022/06/30 01:23:04;;;;;;;21.73;17.10;;;20.50;99.90;;;;;;5015801;28;20454;-76
2022/06/30 01:25:31;;;;;;;24.20;16.67;;;20.50;99.90;;;;;;5015187;28;20486;-76
2022/06/30 01:27:58;;;;;;;22.13;17.43;;;20.50;99.90;;;;;;5022820;28;20508;-75
2022/06/30 01:30:25;;;;;;;18.97;15.10;;;20.40;99.90;;;;;;5014432;28;20454;-75
2022/06/30 01:32:52;;;;;;;21.60;17.07;;;20.30;99.90;;;;;;5025474;28;20453;-75
2022/06/30 01:35:18;;;;;;;19.00;16.83;;;20.30;99.90;;;;;;5014403;28;20474;-76
2022/06/30 01:37:49;;;;;;;23.93;17.00;;;20.40;99.90;;;;;;5023621;28;20449;-76
2022/06/30 01:40:18;;;;;;;25.03;16.93;;;20.20;99.90;;;;;;5017787;28;20473;-76
2022/06/30 01:42:44;;;;;;;24.57;17.87;;;20.10;99.90;;;;;;5015299;28;20450;-76
2022/06/30 01:45:12;;;;;;;28.43;18.50;;;20.10;99.90;;;;;;5014686;28;20493;-75
2022/06/30 01:47:39;;;;;;;25.63;18.60;;;20.00;99.90;;;;;;5023441;28;20445;-76
2022/06/30 01:50:09;;;;;;;27.87;18.27;;;20.00;99.90;;;;;;5025527;28;20507;-76
2022/06/30 01:52:35;;;;;;;27.53;18.90;;;19.90;99.90;;;;;;5018134;28;20453;-76
2022/06/30 01:55:02;;;;;;;24.83;18.83;;;19.90;99.90;;;;;;5032224;28;20504;-76
2022/06/30 01:57:30;;;;;;;25.43;19.30;;;19.80;99.90;;;;;;5017315;28;20489;-76
2022/06/30 01:59:57;;;;;;;23.80;18.67;;;19.80;99.90;;;;;;5016710;28;21006;-75
2022/06/30 02:02:23;;;;;;;29.53;18.83;;;19.80;99.90;;;;;;5020964;28;20450;-75
2022/06/30 02:04:52;;;;;;;28.00;18.80;;;19.80;99.90;;;;;;5025462;28;20473;-76
2022/06/30 02:07:18;;;;;;;27.97;19.40;;;19.80;99.90;;;;;;5016231;28;20466;-75
2022/06/30 02:09:46;;;;;;;25.87;19.27;;;19.80;99.90;;;;;;5025193;28;20472;-76
2022/06/30 02:14:59;;;;;;;24.10;17.80;;;19.70;99.90;;;;;;5017220;28;20457;-76
2022/06/30 02:17:26;;;;;;;24.63;19.83;;;19.60;99.90;;;;;;5019576;28;20503;-75
2022/06/30 02:19:53;;;;;;;24.57;19.07;;;19.60;99.90;;;;;;5017379;28;20489;-76
2022/06/30 02:22:20;;;;;;;30.00;18.67;;;19.60;99.90;;;;;;5014642;28;20501;-75
2022/06/30 02:24:46;;;;;;;26.80;18.63;;;19.60;99.90;;;;;;5027810;28;20481;-75
2022/06/30 02:27:13;;;;;;;24.40;18.60;;;19.60;99.90;;;;;;5028946;28;20449;-75
2022/06/30 02:29:40;;;;;;;19.97;17.50;;;19.60;99.90;;;;;;5026763;28;20950;-75
2022/06/30 02:32:09;;;;;;;24.63;19.10;;;19.50;99.90;;;;;;5014622;28;20458;-75
2022/06/30 02:34:35;;;;;;;26.33;19.30;;;19.50;99.90;;;;;;5022305;28;20472;-76
2022/06/30 02:37:02;;;;;;;29.37;19.40;;;19.50;99.90;;;;;;5015122;28;20523;-76
2022/06/30 02:39:29;;;;;;;30.10;18.40;;;19.50;99.90;;;;;;5030829;28;20535;-76
2022/06/30 02:41:56;;;;;;;28.10;19.90;;;19.40;99.90;;;;;;5016029;28;20955;-75
2022/06/30 02:44:22;;;;;;;28.20;21.40;;;19.40;99.90;;;;;;5016234;28;20899;-75
2022/06/30 02:46:50;;;;;;;28.80;19.67;;;19.40;99.90;;;;;;5023558;28;20449;-75
2022/06/30 02:49:18;;;;;;;26.77;20.50;;;19.40;99.90;;;;;;5014967;28;20458;-76
2022/06/30 02:51:45;;;;;;;26.23;20.43;;;19.30;99.90;;;;;;5016927;28;20463;-76
2022/06/30 02:54:12;;;;;;;31.33;20.27;;;19.30;99.90;;;;;;5024697;28;20473;-76
2022/06/30 02:56:38;;;;;;;33.70;21.10;;;19.30;99.90;;;;;;5017983;28;20454;-76
2022/06/30 02:59:05;;;;;;;27.00;21.00;;;19.20;99.90;;;;;;5013038;28;20501;-75
2022/06/30 03:01:32;;;;;;;30.20;21.50;;;19.20;99.90;;;;;;5018729;28;20481;-75
2022/06/30 03:04:00;;;;;;;26.97;21.27;;;19.20;99.90;;;;;;5020055;28;20449;-76
2022/06/30 03:06:28;;;;;;;26.10;20.43;;;19.10;99.90;;;;;;5026291;28;20453;-75
2022/06/30 03:08:55;;;;;;;26.83;21.10;;;19.10;99.90;;;;;;5024147;28;20462;-75
2022/06/30 03:11:22;;;;;;;28.90;21.50;;;19.10;99.90;;;;;;5021438;28;20445;-76
2022/06/30 03:13:48;;;;;;;28.80;21.50;;;19.10;99.90;;;;;;5022624;28;20449;-75
2022/06/30 03:16:15;;;;;;;33.77;22.10;;;19.10;99.90;;;;;;5020922;28;20458;-76
2022/06/30 03:18:42;;;;;;;34.30;22.40;;;19.10;99.90;;;;;;5030420;28;20971;-75
2022/06/30 03:21:09;;;;;;;29.60;21.27;;;19.10;99.90;;;;;;5022304;28;21010;-75
2022/06/30 03:23:38;;;;;;;32.20;22.70;;;19.00;99.90;;;;;;5012603;28;20971;-75
2022/06/30 03:26:05;;;;;;;27.87;21.70;;;19.00;99.90;;;;;;5025273;28;20555;-75
2022/06/30 03:28:33;;;;;;;30.33;24.20;;;19.00;99.90;;;;;;5018105;28;20455;-75
2022/06/30 03:31:00;;;;;;;33.17;23.80;;;18.90;99.90;;;;;;5014069;28;20520;-75
2022/06/30 03:33:27;;;;;;;29.20;21.57;;;18.90;99.90;;;;;;5022730;28;20446;-75
2022/06/30 03:35:54;;;;;;;37.10;24.10;;;18.80;99.90;;;;;;5012992;28;20484;-76
2022/06/30 03:38:20;;;;;;;29.63;21.67;;;18.90;99.90;;;;;;5013463;28;20462;-76
2022/06/30 03:40:48;;;;;;;31.47;22.50;;;18.90;99.90;;;;;;5014811;28;20993;-75
2022/06/30 03:43:16;;;;;;;34.13;22.90;;;18.90;99.90;;;;;;5014826;28;20478;-73
2022/06/30 03:45:43;;;;;;;30.80;22.77;;;18.80;99.90;;;;;;5009937;28;21175;-73
2022/06/30 03:48:10;;;;;;;29.33;23.30;;;18.90;99.90;;;;;;5001610;28;20458;-73
2022/06/30 03:50:37;;;;;;;32.57;23.47;;;18.90;99.90;;;;;;5012265;28;20454;-73
2022/06/30 03:53:04;;;;;;;35.70;24.40;;;18.90;99.90;;;;;;5016902;28;20544;-73
2022/06/30 03:55:33;;;;;;;31.97;23.50;;;18.90;99.90;;;;;;5030200;28;20516;-73
2022/06/30 03:58:01;;;;;;;31.50;22.63;;;18.90;99.90;;;;;;5029075;28;20548;-73
2022/06/30 04:00:28;;;;;;;40.47;22.93;;;18.90;99.90;;;;;;5017195;28;20463;-73
2022/06/30 04:02:54;;;;;;;37.90;24.30;;;18.90;99.90;;;;;;5013179;28;20873;-73
2022/06/30 04:05:21;;;;;;;33.33;23.47;;;18.90;99.90;;;;;;5022245;28;20469;-73
2022/06/30 04:07:48;;;;;;;30.10;22.67;;;18.90;99.90;;;;;;5026572;28;20459;-73
2022/06/30 04:10:15;;;;;;;38.30;22.37;;;19.00;99.90;;;;;;5014809;28;21113;-73
2022/06/30 04:12:42;;;;;;;28.20;23.50;;;19.00;99.90;;;;;;5015035;28;20958;-73
2022/06/30 04:15:11;;;;;;;30.43;21.67;;;19.00;99.90;;;;;;5010877;28;20448;-73
2022/06/30 04:17:38;;;;;;;26.20;21.43;;;19.00;99.90;;;;;;5008006;28;20454;-73
2022/06/30 04:20:15;;;;;;;29.40;23.17;;;19.10;99.90;;;;;;5010367;28;20482;-72
2022/06/30 04:22:42;;;;;;;34.73;22.37;;;19.10;99.90;;;;;;5011801;28;20493;-73
2022/06/30 04:25:10;;;;;;;29.97;21.77;;;19.10;99.90;;;;;;5017892;28;20477;-73
2022/06/30 04:27:36;;;;;;;28.87;21.70;;;19.10;99.90;;;;;;5008294;28;20455;-73
2022/06/30 04:30:03;;;;;;;31.83;23.27;;;19.10;99.90;;;;;;5012552;28;20447;-73
2022/06/30 04:32:40;;;;;;;34.53;23.10;;;19.00;99.90;;;;;;5011593;28;20660;-72
2022/06/30 04:35:09;;;;;;;29.20;22.53;;;19.00;99.90;;;;;;5010745;28;20474;-78
2022/06/30 04:37:35;;;;;;;28.07;21.80;;;19.10;99.90;;;;;;5025547;28;20458;-78
2022/06/30 04:42:48;;;;;;;29.50;20.83;;;19.20;99.90;;;;;;5017896;28;20517;-77
2022/06/30 04:45:14;;;;;;;37.73;21.33;;;19.40;99.90;;;;;;5021618;28;20484;-78
2022/06/30 04:47:42;;;;;;;23.97;20.90;;;19.40;99.90;;;;;;5011707;28;20884;-78
2022/06/30 04:50:09;;;;;;;28.47;21.83;;;19.60;99.90;;;;;;5014520;28;20453;-78
2022/06/30 04:52:36;;;;;;;27.07;20.30;;;19.70;99.90;;;;;;5018656;28;20450;-78
2022/06/30 04:55:03;;;;;;;29.23;20.70;;;19.80;99.90;;;;;;5019276;28;20469;-78
2022/06/30 04:57:30;;;;;;;30.17;20.20;;;19.90;99.90;;;;;;5020663;28;20549;-79
2022/06/30 04:59:57;;;;;;;23.23;18.83;;;20.00;99.90;;;;;;5012052;28;20462;-78
2022/06/30 05:02:23;;;;;;;23.93;19.60;;;20.00;99.90;;;;;;5020900;28;20485;-78
2022/06/30 05:04:51;;;;;;;30.23;20.60;;;20.10;99.90;;;;;;5014949;28;20470;-78
2022/06/30 05:07:18;;;;;;;24.70;20.63;;;20.20;99.90;;;;;;5016158;28;20450;-78
2022/06/30 05:09:45;;;;;;;26.40;20.53;;;20.30;99.90;;;;;;5029293;28;20465;-78
2022/06/30 05:12:12;;;;;;;24.30;20.40;;;20.40;99.90;;;;;;5021172;28;20806;-78
2022/06/30 05:14:38;;;;;;;24.37;19.47;;;20.50;99.90;;;;;;5019396;28;20473;-75
2022/06/30 05:17:06;;;;;;;31.30;19.67;;;20.60;99.90;;;;;;5026550;28;20483;-77
2022/06/30 05:19:32;;;;;;;27.53;20.17;;;20.70;99.90;;;;;;5014516;28;20512;-77
2022/06/30 05:22:00;;;;;;;23.70;18.00;;;20.80;99.90;;;;;;5016196;28;20489;-77
2022/06/30 05:27:12;;;;;;;23.93;18.50;;;21.00;99.90;;;;;;5016395;28;20592;-78
2022/06/30 05:29:38;;;;;;;25.20;18.57;;;21.10;99.90;;;;;;5014676;28;20454;-77
2022/06/30 05:32:06;;;;;;;27.37;20.10;;;21.20;99.90;;;;;;5021141;28;20483;-76
2022/06/30 05:34:33;;;;;;;22.53;19.63;;;21.30;99.90;;;;;;5019331;28;20520;-76
2022/06/30 05:37:01;;;;;;;25.70;19.87;;;21.50;99.90;;;;;;5015197;28;20456;-74
2022/06/30 05:39:28;;;;;;;25.93;20.03;;;21.60;99.90;;;;;;5021251;28;20462;-72
2022/06/30 05:41:55;;;;;;;21.20;18.03;;;21.70;99.90;;;;;;5010251;28;20485;-71
2022/06/30 05:44:21;;;;;;;24.33;19.80;;;21.90;99.90;;;;;;5021234;28;20473;-72
2022/06/30 05:46:48;;;;;;;23.97;19.53;;;22.00;99.90;;;;;;5018589;28;20485;-72
2022/06/30 05:49:15;;;;;;;21.97;18.00;;;22.10;99.90;;;;;;5021490;28;20462;-71
2022/06/30 05:51:41;;;;;;;22.77;19.00;;;22.20;99.90;;;;;;5022532;28;20497;-71
2022/06/30 05:54:09;;;;;;;23.50;19.13;;;22.30;99.90;;;;;;5020021;28;20524;-72
2022/06/30 05:56:36;;;;;;;22.97;18.60;;;22.30;99.90;;;;;;5027920;28;20457;-72
2022/06/30 05:59:03;;;;;;;22.73;18.93;;;22.30;99.90;;;;;;5029653;28;20760;-72
2022/06/30 06:01:29;;;;;;;26.00;18.97;;;22.30;99.90;;;;;;5016376;28;21010;-73
2022/06/30 06:03:56;;;;;;;26.77;18.80;;;22.40;99.90;;;;;;5013070;28;20516;-73
2022/06/30 06:06:23;;;;;;;30.90;19.83;;;22.40;99.90;;;;;;5011221;28;20450;-73
2022/06/30 06:08:50;;;;;;;26.30;18.60;;;22.40;99.90;;;;;;5013022;28;20454;-73
2022/06/30 06:11:18;;;;;;;23.67;18.73;;;22.50;99.90;;;;;;5013437;28;20446;-73
2022/06/30 06:13:44;;;;;;;21.90;18.43;;;22.60;99.90;;;;;;5012871;28;20450;-73
2022/06/30 06:16:11;;;;;;;24.00;18.10;;;22.80;99.90;;;;;;5014004;28;20939;-73
2022/06/30 06:18:38;;;;;;;21.70;17.50;;;23.00;99.90;;;;;;5013925;28;20508;-73
2022/06/30 06:21:04;;;;;;;25.37;18.33;;;23.20;99.90;;;;;;5013961;28;20516;-73
2022/06/30 06:23:31;;;;;;;23.93;17.23;;;23.40;99.90;;;;;;5013905;28;20458;-73
2022/06/30 06:25:58;;;;;;;20.40;17.33;;;23.60;99.90;;;;;;5014117;28;20482;-73
2022/06/30 06:31:09;;;;;;;23.83;15.80;;;23.90;99.90;;;;;;5013641;28;20433;-73
2022/06/30 06:33:38;;;;;;;18.43;16.53;;;24.00;99.90;;;;;;5013748;28;20489;-73
2022/06/30 06:36:05;;;;;;;21.50;16.93;;;24.10;99.90;;;;;;5013877;28;20524;-73
2022/06/30 06:38:31;;;;;;;25.03;18.27;;;24.20;99.90;;;;;;5013879;28;20450;-73
2022/06/30 06:40:58;;;;;;;20.57;16.87;;;24.30;99.90;;;;;;5013357;28;20994;-73
2022/06/30 06:43:26;;;;;;;21.80;16.20;;;24.50;99.90;;;;;;5013462;28;20454;-73
2022/06/30 06:45:53;;;;;;;20.97;15.40;;;24.50;99.90;;;;;;5013194;28;20469;-73
2022/06/30 06:48:20;;;;;;;18.80;16.20;;;24.50;99.90;;;;;;5013745;28;20454;-73
2022/06/30 06:50:46;;;;;;;18.33;15.87;;;24.60;99.90;;;;;;5013505;28;20454;-73
2022/06/30 06:53:13;;;;;;;21.50;16.63;;;24.30;99.90;;;;;;5013331;28;20458;-73
2022/06/30 06:55:40;;;;;;;23.90;16.70;;;24.30;99.90;;;;;;5013177;28;20877;-73
2022/06/30 06:58:08;;;;;;;18.27;15.03;;;24.40;99.90;;;;;;5013407;28;20573;-73
2022/06/30 07:00:36;;;;;;;18.83;16.00;;;24.40;99.90;;;;;;5013666;28;20520;-73
2022/06/30 07:03:02;;;;;;;18.30;16.30;;;24.60;99.90;;;;;;5013482;28;20458;-73
2022/06/30 07:05:29;;;;;;;20.00;17.00;;;24.80;99.90;;;;;;5013026;28;21014;-73
2022/06/30 07:08:00;;;;;;;27.47;17.73;;;25.00;99.90;;;;;;5013088;28;20490;-73
2022/06/30 07:10:28;;;;;;;19.67;15.43;;;25.10;99.90;;;;;;5012875;28;20454;-73
2022/06/30 07:12:55;;;;;;;23.93;15.23;;;25.20;99.90;;;;;;5013161;28;20545;-73
2022/06/30 07:15:22;;;;;;;17.00;13.80;;;25.20;99.90;;;;;;5013022;28;20516;-72
2022/06/30 07:17:50;;;;;;;17.70;15.27;;;25.20;99.90;;;;;;5012564;28;20458;-73
2022/06/30 07:20:17;;;;;;;18.87;14.90;;;25.20;99.90;;;;;;5012984;28;20520;-73
2022/06/30 07:22:44;;;;;;;19.20;15.33;;;25.20;99.90;;;;;;5012750;28;20544;-72
2022/06/30 07:25:10;;;;;;;19.57;14.77;;;25.10;99.90;;;;;;5012821;28;20907;-73
2022/06/30 07:27:37;;;;;;;17.63;13.60;;;25.20;99.90;;;;;;5012868;28;20465;-73
2022/06/30 07:30:05;;;;;;;17.50;13.97;;;25.30;99.90;;;;;;5012863;28;20434;-73
2022/06/30 07:32:32;;;;;;;11.43;10.23;;;25.40;99.90;;;;;;5012650;28;20508;-73
2022/06/30 07:35:00;;;;;;;15.73;12.03;;;25.50;99.90;;;;;;5012585;28;20513;-73
2022/06/30 07:37:26;;;;;;;16.70;13.07;;;25.30;99.90;;;;;;5012338;28;20442;-73
2022/06/30 07:39:53;;;;;;;19.53;14.40;;;25.30;99.90;;;;;;5013022;28;20480;-73
2022/06/30 07:42:20;;;;;;;22.23;14.13;;;25.20;99.90;;;;;;5012630;28;20539;-73
2022/06/30 07:44:46;;;;;;;19.50;13.60;;;25.20;99.90;;;;;;5012465;28;20907;-73
2022/06/30 07:47:14;;;;;;;16.43;13.50;;;25.50;99.90;;;;;;5012793;28;20450;-73
2022/06/30 07:49:41;;;;;;;20.50;13.17;;;25.70;99.90;;;;;;5012353;28;20462;-73
2022/06/30 07:52:09;;;;;;;14.67;11.93;;;25.70;99.90;;;;;;5012039;28;20453;-73
2022/06/30 07:54:36;;;;;;;14.40;11.83;;;25.70;99.90;;;;;;5012185;28;20485;-73
2022/06/30 07:57:03;;;;;;;23.23;11.77;;;25.90;99.90;;;;;;5012329;28;20504;-73
2022/06/30 07:59:31;;;;;;;16.43;11.40;;;26.10;99.90;;;;;;5012379;28;20446;-73
2022/06/30 08:01:58;;;;;;;14.73;11.63;;;26.20;99.90;;;;;;5012522;28;21060;-73
2022/06/30 08:04:25;;;;;;;18.13;11.80;;;26.10;99.90;;;;;;5011850;28;20581;-73
2022/06/30 08:06:51;;;;;;;16.37;11.90;;;26.50;99.90;;;;;;5012570;28;20462;-73
2022/06/30 08:09:19;;;;;;;20.60;12.03;;;26.70;99.90;;;;;;5012250;28;21001;-73
2022/06/30 08:11:46;;;;;;;15.53;12.60;;;26.70;99.90;;;;;;5011775;28;20853;-73
2022/06/30 08:14:13;;;;;;;15.27;13.60;;;26.70;99.90;;;;;;5011865;28;20504;-73
2022/06/30 08:16:39;;;;;;;19.97;14.10;;;26.80;99.90;;;;;;5012015;28;20454;-73
2022/06/30 08:19:06;;;;;;;18.40;13.40;;;26.80;99.90;;;;;;5012105;28;20453;-73
2022/06/30 08:21:33;;;;;;;20.47;13.63;;;26.70;99.90;;;;;;5012196;28;20497;-73
2022/06/30 08:23:59;;;;;;;17.40;13.23;;;26.70;99.90;;;;;;5011616;28;20498;-73
2022/06/30 08:26:27;;;;;;;14.93;13.33;;;26.80;99.90;;;;;;5012123;28;20454;-73
2022/06/30 08:28:54;;;;;;;14.93;12.90;;;27.00;99.90;;;;;;5011735;28;20454;-73
2022/06/30 08:31:21;;;;;;;14.73;13.17;;;27.10;99.90;;;;;;5011346;28;20454;-73
2022/06/30 08:33:50;;;;;;;18.20;12.33;;;27.40;99.90;;;;;;5011513;28;20485;-73
2022/06/30 08:36:17;;;;;;;21.47;12.73;;;27.30;99.90;;;;;;5012142;28;20458;-74
2022/06/30 08:38:44;;;;;;;15.13;12.60;;;27.40;99.90;;;;;;5011871;28;20872;-73
2022/06/30 08:43:58;;;;;;;13.77;12.30;;;27.90;99.90;;;;;;5011577;28;20577;-73
2022/06/30 08:46:27;;;;;;;13.63;12.27;;;28.10;99.90;;;;;;5012028;28;20509;-73
2022/06/30 08:48:54;;;;;;;17.60;12.47;;;28.20;99.90;;;;;;5011929;28;20637;-73
2022/06/30 08:51:22;;;;;;;13.87;12.30;;;28.20;99.90;;;;;;5011748;28;20454;-74
2022/06/30 08:53:56;;;;;;;13.20;11.37;;;28.30;99.90;;;;;;5011392;28;20450;-73
2022/06/30 08:56:24;;;;;;;13.40;11.70;;;28.70;99.90;;;;;;5011508;28;20926;-73
2022/06/30 08:58:52;;;;;;;14.50;12.30;;;29.00;99.90;;;;;;5011454;28;20938;-73
2022/06/30 09:01:20;;;;;;;12.37;11.07;;;29.00;99.90;;;;;;5011680;28;20456;-73
2022/06/30 09:03:46;;;;;;;18.10;11.03;;;29.00;99.90;;;;;;5011086;28;20914;-73
2022/06/30 09:06:14;;;;;;;11.53;10.27;;;29.00;99.90;;;;;;5011691;28;20492;-73
2022/06/30 09:08:41;;;;;;;10.40;9.47;;;29.10;99.90;;;;;;5011403;28;20458;-74
2022/06/30 09:11:07;;;;;;;12.60;10.63;;;29.40;99.90;;;;;;5011402;28;20455;-74
2022/06/30 09:13:42;;;;;;;14.63;10.27;;;29.30;99.90;;;;;;5011243;28;20527;-73
2022/06/30 09:16:09;;;;;;;12.90;9.80;;;29.40;99.90;;;;;;5011561;28;20524;-73
2022/06/30 09:18:38;;;;;;;13.07;9.60;;;29.40;99.90;;;;;;5011779;28;20981;-73
2022/06/30 09:21:14;;;;;;;10.13;9.13;;;29.40;99.90;;;;;;5011995;28;20453;-73
2022/06/30 09:23:43;;;;;;;10.00;9.10;;;29.30;99.90;;;;;;5010983;28;20849;-73
2022/06/30 09:26:18;;;;;;;11.70;9.57;;;29.40;99.90;;;;;;5011762;28;20509;-73
2022/06/30 09:28:46;;;;;;;11.67;8.70;;;29.80;99.90;;;;;;5011348;28;20521;-73
2022/06/30 09:31:16;;;;;;;9.50;8.50;;;30.00;99.90;;;;;;5011362;28;20449;-73
2022/06/30 09:33:47;;;;;;;11.53;7.73;;;30.30;99.90;;;;;;5011068;28;20504;-73
2022/06/30 09:36:22;;;;;;;10.20;6.93;;;30.60;99.90;;;;;;5011459;28;20859;-73
2022/06/30 09:38:59;;;;;;;9.80;8.60;;;30.90;99.90;;;;;;5011220;28;20504;-73
2022/06/30 09:41:28;;;;;;;8.27;7.47;;;31.30;99.90;;;;;;5012473;28;20453;-73
2022/06/30 09:43:54;;;;;;;9.53;7.87;;;31.50;99.90;;;;;;5014273;28;20923;-73
2022/06/30 09:46:21;;;;;;;9.00;7.70;;;31.60;99.90;;;;;;5014877;28;20458;-73
2022/06/30 09:48:49;;;;;;;7.63;6.70;;;31.70;99.90;;;;;;5014758;28;20533;-73
2022/06/30 09:51:17;;;;;;;9.20;7.10;;;31.70;99.90;;;;;;5014772;28;20504;-73
2022/06/30 09:53:43;;;;;;;16.13;7.33;;;31.80;99.90;;;;;;5014308;28;20952;-73
2022/06/30 09:56:12;;;;;;;8.40;6.67;;;31.80;99.90;;;;;;5014301;28;20516;-74
2022/06/30 09:58:42;;;;;;;5.50;5.00;;;31.90;99.90;;;;;;5014617;28;20478;-74
2022/06/30 10:01:09;;;;;;;6.77;4.73;;;32.00;99.90;;;;;;4994966;28;20455;-73
2022/06/30 10:03:45;;;;;;;6.70;5.00;;;31.80;99.90;;;;;;4994584;28;20486;-74
2022/06/30 10:06:14;;;;;;;5.20;4.80;;;31.70;99.90;;;;;;4994892;28;20475;-74
2022/06/30 10:08:41;;;;;;;6.00;5.30;;;31.50;99.90;;;;;;4994421;28;20505;-74
2022/06/30 10:11:09;;;;;;;10.13;6.20;;;31.70;99.90;;;;;;4994557;28;20962;-73
2022/06/30 10:13:37;;;;;;;9.00;6.23;;;31.70;99.90;;;;;;4994547;28;20447;-73
2022/06/30 10:16:05;;;;;;;8.67;6.50;;;32.10;99.90;;;;;;4994685;28;20467;-74
2022/06/30 10:18:36;;;;;;;6.50;5.90;;;32.30;99.90;;;;;;4994843;28;20447;-74
2022/06/30 10:21:04;;;;;;;7.13;5.90;;;31.90;99.90;;;;;;4994545;28;20439;-74
2022/06/30 10:23:33;;;;;;;5.70;5.13;;;31.90;99.90;;;;;;4994324;28;20499;-75
2022/06/30 10:26:00;;;;;;;7.13;5.20;;;31.80;99.90;;;;;;4994172;28;21058;-74
2022/06/30 10:28:28;;;;;;;6.33;5.03;;;31.70;99.90;;;;;;4994425;28;20443;-74
2022/06/30 10:31:01;;;;;;;6.23;5.50;;;31.80;99.90;;;;;;4994197;28;20542;-74
2022/06/30 10:33:38;;;;;;;8.80;5.00;;;31.60;99.90;;;;;;4994274;28;20436;-74
2022/06/30 10:36:12;;;;;;;7.93;5.00;;;31.80;99.90;;;;;;4994075;28;20990;-73
2022/06/30 10:38:47;;;;;;;5.00;4.60;;;32.10;99.90;;;;;;4994307;28;20465;-74
2022/06/30 10:41:17;;;;;;;6.77;3.30;;;32.60;99.90;;;;;;5004454;28;20500;-74
2022/06/30 10:44:20;;;;;;;3.13;2.90;;;33.10;99.90;;;;;;5013472;28;20567;-74
2022/06/30 10:47:08;;;;;;;5.03;4.53;;;33.60;99.90;;;;;;5013642;28;20454;-74
2022/06/30 10:49:51;;;;;;;4.40;3.70;;;33.80;99.90;;;;;;5013352;28;20461;-74
2022/06/30 10:52:22;;;;;;;5.80;4.83;;;33.50;99.90;;;;;;5013252;28;20446;-74
2022/06/30 10:54:59;;;;;;;7.30;5.23;;;33.00;99.90;;;;;;5013028;28;20470;-74
2022/06/30 10:57:26;;;;;;;5.53;5.00;;;32.50;99.90;;;;;;5013550;28;20478;-73
2022/06/30 10:59:52;;;;;;;7.10;6.23;;;32.30;99.90;;;;;;5013210;28;20489;-73
2022/06/30 11:02:26;;;;;;;6.00;5.50;;;32.10;99.90;;;;;;5013676;28;20558;-74
2022/06/30 11:05:23;;;;;;;6.40;4.93;;;32.30;99.90;;;;;;5013057;28;20883;-74
2022/06/30 11:07:49;;;;;;;6.00;4.87;;;32.50;99.90;;;;;;5013387;28;20541;-73
2022/06/30 11:10:22;;;;;;;7.53;5.20;;;33.00;99.90;;;;;;5012811;28;20520;-73
2022/06/30 11:12:59;;;;;;;5.60;5.10;;;33.20;99.90;;;;;;5013287;28;20461;-73
2022/06/30 11:15:50;;;;;;;4.93;4.50;;;33.10;99.90;;;;;;5012819;28;20474;-74
2022/06/30 11:18:18;;;;;;;5.73;5.00;;;33.10;99.90;;;;;;5005904;28;20461;-74
2022/06/30 11:20:45;;;;;;;5.60;4.87;;;33.20;99.90;;;;;;5012728;28;20454;-74
2022/06/30 11:23:12;;;;;;;4.60;4.23;;;33.30;99.90;;;;;;5012523;28;20486;-74
2022/06/30 11:28:31;;;;;;;5.83;5.00;;;33.70;99.90;;;;;;5012977;28;20434;-74
2022/06/30 11:30:57;;;;;;;7.37;5.17;;;34.20;99.90;;;;;;5012791;28;20458;-74
2022/06/30 11:33:24;;;;;;;9.90;5.50;;;34.10;99.90;;;;;;5012355;28;20446;-73
2022/06/30 11:36:06;;;;;;;5.57;5.17;;;33.70;99.90;;;;;;5012434;28;20466;-73
2022/06/30 11:38:34;;;;;;;5.20;4.43;;;33.70;99.90;;;;;;5012817;28;20557;-73
2022/06/30 11:43:52;;;;;;;9.27;4.70;;;34.00;99.90;;;;;;5012208;28;20560;-74
2022/06/30 11:46:19;;;;;;;7.33;4.83;;;34.10;99.80;;;;;;5012503;28;20525;-74
2022/06/30 11:48:46;;;;;;;4.73;4.33;;;34.10;99.70;;;;;;5013029;28;20896;-74
2022/06/30 11:51:13;;;;;;;8.17;4.93;;;33.80;99.40;;;;;;5012514;28;20450;-74
2022/06/30 11:53:41;;;;;;;6.90;4.40;;;33.20;98.30;;;;;;5012438;28;20492;-73
2022/06/30 11:56:09;;;;;;;28.60;12.50;;;32.60;98.30;;;;;;5012577;28;20548;-74
2022/06/30 11:58:38;;;;;;;6.90;5.03;;;32.10;99.20;;;;;;5012574;28;20554;-74
2022/06/30 12:01:17;;;;;;;12.50;4.07;;;32.20;99.60;;;;;;5012402;28;20924;-74
2022/06/30 12:03:47;;;;;;;4.70;4.30;;;32.40;99.90;;;;;;5011962;28;20486;-73
2022/06/30 12:06:17;;;;;;;23.07;10.77;;;32.60;99.20;;;;;;5012207;28;20505;-74
2022/06/30 12:08:50;;;;;;;5.70;4.87;;;32.90;98.40;;;;;;5012388;28;20491;-73
2022/06/30 12:11:17;;;;;;;4.70;4.30;;;32.70;98.50;;;;;;5011972;28;20477;-74
2022/06/30 12:13:44;;;;;;;5.13;4.57;;;32.80;98.50;;;;;;5011979;28;20450;-73
2022/06/30 12:16:11;;;;;;;12.90;5.20;;;33.00;98.40;;;;;;5012442;28;20497;-73
2022/06/30 12:18:41;;;;;;;9.37;4.73;;;33.10;97.70;;;;;;5011864;28;20506;-73
2022/06/30 12:21:08;;;;;;;4.80;4.27;;;33.50;97.60;;;;;;5012240;28;20454;-73
2022/06/30 12:23:37;;;;;;;7.13;3.80;;;33.80;97.40;;;;;;5011978;28;20540;-74
2022/06/30 12:26:05;;;;;;;11.03;3.77;;;34.30;97.30;;;;;;5011823;28;20490;-74
2022/06/30 12:28:46;;;;;;;5.70;4.80;;;34.90;95.40;;;;;;5012247;28;20961;-73
2022/06/30 12:31:23;;;;;;;5.20;4.70;;;34.70;95.70;;;;;;5011626;28;20457;-74
2022/06/30 12:33:49;;;;;;;7.83;4.33;;;34.30;95.30;;;;;;5011951;28;20454;-74
2022/06/30 12:36:16;;;;;;;10.23;6.33;;;33.80;96.40;;;;;;5011791;28;20446;-74
2022/06/30 12:38:43;;;;;;;5.20;4.70;;;33.60;96.60;;;;;;5012002;28;20451;-73
2022/06/30 12:41:12;;;;;;;10.33;4.83;;;33.60;96.20;;;;;;5011763;28;20528;-74
2022/06/30 12:43:49;;;;;;;6.87;5.10;;;33.60;96.30;;;;;;5011568;28;20509;-73
2022/06/30 12:46:16;;;;;;;8.07;4.67;;;33.80;97.60;;;;;;5011914;28;20450;-74
2022/06/30 12:48:46;;;;;;;11.80;5.30;;;34.20;96.70;;;;;;5011628;28;20454;-74
2022/06/30 12:51:14;;;;;;;4.90;4.50;;;34.30;94.80;;;;;;5012133;28;20450;-73
2022/06/30 12:53:41;;;;;;;8.37;5.47;;;34.10;95.20;;;;;;5011567;28;20524;-74
2022/06/30 12:56:12;;;;;;;6.63;4.83;;;34.20;95.30;;;;;;5011313;28;20853;-73
2022/06/30 12:58:52;;;;;;;5.30;4.70;;;34.40;95.10;;;;;;5011958;28;20548;-73
2022/06/30 13:01:21;;;;;;;6.23;4.83;;;34.30;94.70;;;;;;4992094;28;20462;-74